Time;durP1;ratioP1;P1;durP2;ratioP2;P2;SDS_P1;SDS_P2;PMS_P1;PMS_P2;Temp;Humidity;BMP_temperature;BMP_pressure;BME280_temperature;BME280_humidity;BME280_pressure;Samples;Min_cycle;Max_cycle;Signal;HPM_P1;HPM_P2
2022/11/04 00:01:51;;;;;;;10.73;9.75;;;11.60;99.90;;;;;;4958193;28;90263;-29
2022/11/04 00:04:19;;;;;;;14.15;10.82;;;11.70;99.90;;;;;;4960139;28;90811;-28
2022/11/04 00:06:45;;;;;;;13.60;11.40;;;11.60;99.90;;;;;;4962038;28;88984;-29
2022/11/04 00:09:16;;;;;;;10.70;9.70;;;11.70;99.90;;;;;;4963658;28;89996;-32
2022/11/04 00:14:29;;;;;;;9.02;7.60;;;11.60;99.90;;;;;;4962972;28;89494;-32
2022/11/04 00:30:52;;;;;;;3.08;2.80;;;11.40;99.90;;;;;;4964373;28;89399;-29
2022/11/04 00:33:27;;;;;;;4.28;1.63;;;11.30;99.90;;;;;;4963407;28;90364;-31
2022/11/04 00:35:55;;;;;;;1.92;1.67;;;11.20;99.90;;;;;;4963216;28;89411;-28
2022/11/04 00:38:25;;;;;;;3.38;1.30;;;11.20;99.90;;;;;;4962850;28;88427;-29
2022/11/04 00:40:51;;;;;;;1.45;1.35;;;11.10;99.90;;;;;;4963042;28;87536;-28
2022/11/04 00:43:17;;;;;;;2.55;1.30;;;11.00;99.90;;;;;;4964029;28;88806;-29
2022/11/04 00:45:43;;;;;;;3.55;1.35;;;11.00;99.90;;;;;;4962513;28;90302;-30
2022/11/04 00:48:09;;;;;;;2.60;1.25;;;10.90;99.90;;;;;;4963496;28;88700;-30
2022/11/04 00:50:35;;;;;;;1.70;1.60;;;10.80;99.90;;;;;;4963988;28;89427;-27
2022/11/04 00:53:02;;;;;;;1.38;1.27;;;10.80;99.90;;;;;;4962727;28;90377;-29
2022/11/04 00:55:28;;;;;;;1.00;1.00;;;10.80;99.90;;;;;;4963715;28;90132;-32
2022/11/04 00:57:54;;;;;;;1.52;0.88;;;10.80;99.90;;;;;;4963986;28;88206;-30
2022/11/04 01:00:19;;;;;;;1.38;1.27;;;10.70;99.90;;;;;;4963137;28;89554;-28
2022/11/04 01:02:45;;;;;;;1.33;1.15;;;10.70;99.90;;;;;;4963086;28;90066;-28
2022/11/04 01:05:11;;;;;;;1.20;1.10;;;10.70;99.90;;;;;;4961904;28;89768;-29
2022/11/04 01:07:37;;;;;;;3.30;1.30;;;10.70;99.90;;;;;;4963510;28;88748;-30
2022/11/04 01:10:03;;;;;;;2.40;1.60;;;10.60;99.90;;;;;;4963472;28;87642;-29
2022/11/04 01:12:29;;;;;;;1.33;0.90;;;10.60;99.90;;;;;;4962786;28;90221;-28
2022/11/04 01:14:55;;;;;;;3.83;0.95;;;10.60;99.90;;;;;;4962837;28;90091;-30
2022/11/04 01:17:20;;;;;;;0.88;0.57;;;10.60;99.90;;;;;;4962241;28;88010;-32
2022/11/04 01:19:46;;;;;;;1.58;0.47;;;10.60;99.90;;;;;;4963150;28;89049;-31
2022/11/04 01:22:11;;;;;;;1.58;0.90;;;10.60;99.90;;;;;;4963048;28;90692;-29
2022/11/04 01:24:37;;;;;;;1.35;0.80;;;10.60;99.90;;;;;;4961895;28;89786;-31
2022/11/04 01:27:02;;;;;;;1.05;0.80;;;10.60;99.90;;;;;;4963218;28;90083;-29
2022/11/04 01:29:28;;;;;;;1.63;1.10;;;10.50;99.90;;;;;;4962222;28;88555;-27
2022/11/04 01:31:54;;;;;;;3.10;0.77;;;10.50;99.90;;;;;;4961800;28;90693;-32
2022/11/04 01:34:20;;;;;;;1.63;1.05;;;10.50;99.90;;;;;;4962100;28;89641;-29
2022/11/04 01:36:45;;;;;;;7.75;1.17;;;10.60;99.90;;;;;;4962894;28;88731;-30
2022/11/04 01:39:12;;;;;;;3.20;0.93;;;10.50;99.90;;;;;;4962768;28;89229;-28
2022/11/04 01:41:38;;;;;;;1.45;1.05;;;10.50;99.90;;;;;;4962196;28;90678;-29
2022/11/04 01:44:42;;;;;;;1.83;1.30;;;10.50;99.90;;;;;;4962798;28;89625;-31
2022/11/04 01:47:34;;;;;;;1.15;1.00;;;10.50;99.90;;;;;;4962369;28;89052;-31
2022/11/04 01:50:09;;;;;;;2.00;1.50;;;10.50;99.90;;;;;;4962872;28;88974;-30
2022/11/04 01:52:46;;;;;;;2.50;1.20;;;10.50;99.90;;;;;;4962212;28;90717;-28
2022/11/04 01:55:19;;;;;;;2.20;1.40;;;10.40;99.90;;;;;;4961916;28;89260;-30
2022/11/04 01:57:48;;;;;;;1.55;1.13;;;10.50;99.90;;;;;;4962733;28;88353;-30
2022/11/04 02:00:15;;;;;;;1.05;0.95;;;10.50;99.90;;;;;;4962758;28;89789;-30
2022/11/04 02:03:00;;;;;;;4.40;1.48;;;10.50;99.90;;;;;;4961387;28;89927;-30
2022/11/04 02:05:28;;;;;;;2.83;1.15;;;10.50;99.90;;;;;;4962077;28;88851;-30
2022/11/04 02:07:56;;;;;;;1.58;1.23;;;10.50;99.90;;;;;;4944855;28;88742;-31
2022/11/04 02:10:26;;;;;;;3.50;1.42;;;10.50;99.90;;;;;;4962688;28;88808;-27
2022/11/04 02:12:53;;;;;;;1.30;1.15;;;10.50;99.90;;;;;;4962016;28;89657;-30
2022/11/04 02:15:52;;;;;;;2.17;1.58;;;10.50;99.90;;;;;;4961762;28;89846;-31
2022/11/04 02:18:28;;;;;;;2.22;1.70;;;10.50;99.90;;;;;;4961941;28;89666;-32
2022/11/04 02:21:05;;;;;;;2.20;1.13;;;10.50;99.90;;;;;;4962038;28;89707;-29
2022/11/04 02:23:47;;;;;;;2.05;1.70;;;10.50;99.90;;;;;;4961775;28;89342;-29
2022/11/04 02:26:51;;;;;;;3.38;1.40;;;10.50;99.90;;;;;;4961554;28;90040;-27
2022/11/04 02:29:31;;;;;;;6.00;1.50;;;10.50;99.90;;;;;;4961178;28;89816;-32
2022/11/04 02:32:12;;;;;;;2.95;1.40;;;10.50;99.90;;;;;;4961636;28;87611;-28
2022/11/04 02:35:03;;;;;;;2.53;1.35;;;10.50;99.90;;;;;;4960987;28;89220;-30
2022/11/04 02:38:02;;;;;;;2.17;1.63;;;10.50;99.90;;;;;;4961597;28;90019;-30
2022/11/04 02:40:49;;;;;;;1.63;1.52;;;10.50;99.90;;;;;;4962267;28;89127;-31
2022/11/04 02:43:20;;;;;;;4.20;1.48;;;10.50;99.90;;;;;;4962367;28;88762;-29
2022/11/04 02:46:03;;;;;;;2.42;1.70;;;10.50;99.90;;;;;;4961024;28;90437;-30
2022/11/04 02:48:40;;;;;;;1.40;1.20;;;10.40;99.90;;;;;;4960785;28;89745;-29
2022/11/04 02:51:23;;;;;;;2.20;1.40;;;10.40;99.90;;;;;;4961629;28;87573;-30
2022/11/04 02:54:02;;;;;;;1.95;1.30;;;10.40;99.90;;;;;;4961844;28;88881;-32
2022/11/04 02:56:30;;;;;;;4.47;1.38;;;10.40;99.90;;;;;;4961958;28;90593;-31
2022/11/04 02:59:04;;;;;;;1.65;1.00;;;10.30;99.90;;;;;;4961028;28;90196;-28
2022/11/04 03:01:35;;;;;;;2.00;0.75;;;10.30;99.90;;;;;;4962283;28;88519;-30
2022/11/04 03:04:15;;;;;;;0.70;0.70;;;10.30;99.90;;;;;;4961106;28;87662;-27
2022/11/04 03:06:45;;;;;;;1.95;0.57;;;10.30;99.90;;;;;;4961227;28;90258;-28
2022/11/04 03:09:13;;;;;;;1.48;1.00;;;10.30;99.90;;;;;;4960910;28;89867;-32
2022/11/04 03:11:44;;;;;;;3.22;1.58;;;10.30;99.90;;;;;;4961954;28;87685;-32
2022/11/04 03:14:19;;;;;;;2.47;1.60;;;10.20;99.90;;;;;;4961334;28;88514;-28
2022/11/04 03:16:51;;;;;;;3.42;1.52;;;10.20;99.90;;;;;;4961241;28;90305;-27
2022/11/04 03:19:32;;;;;;;3.42;1.70;;;10.30;99.90;;;;;;4961139;28;88926;-29
2022/11/04 03:22:03;;;;;;;3.50;2.78;;;10.30;99.90;;;;;;4960856;28;88096;-28
2022/11/04 03:24:30;;;;;;;4.10;2.80;;;10.30;99.90;;;;;;4961387;28;89563;-27
2022/11/04 03:27:06;;;;;;;3.08;2.78;;;10.20;99.90;;;;;;4961360;28;90035;-31
2022/11/04 03:29:42;;;;;;;3.97;2.80;;;10.30;99.90;;;;;;4961285;28;89664;-30
2022/11/04 03:32:29;;;;;;;4.55;2.70;;;10.40;99.90;;;;;;4961131;28;89231;-29
2022/11/04 03:34:55;;;;;;;4.57;2.60;;;10.40;99.90;;;;;;4960334;28;89484;-28
2022/11/04 03:37:21;;;;;;;2.90;2.47;;;10.40;99.90;;;;;;4961673;28;88485;-29
2022/11/04 03:39:46;;;;;;;4.88;2.97;;;10.30;99.90;;;;;;4959481;28;89821;-29
2022/11/04 03:42:19;;;;;;;2.53;2.33;;;10.30;99.90;;;;;;4961485;28;90209;-32
2022/11/04 03:44:53;;;;;;;6.68;3.33;;;10.40;99.90;;;;;;4960221;28;88979;-30
2022/11/04 03:47:28;;;;;;;3.63;2.97;;;10.40;99.90;;;;;;4961245;28;89888;-29
2022/11/04 03:50:01;;;;;;;3.70;3.33;;;10.40;99.90;;;;;;4960568;28;90516;-30
2022/11/04 03:52:27;;;;;;;3.58;2.63;;;10.40;99.90;;;;;;4961321;28;89170;-32
2022/11/04 03:54:52;;;;;;;2.78;2.58;;;10.40;99.90;;;;;;4960474;28;87654;-32
2022/11/04 03:57:38;;;;;;;2.90;1.90;;;10.40;99.90;;;;;;4961107;28;90151;-29
2022/11/04 04:00:11;;;;;;;2.35;1.83;;;10.30;99.90;;;;;;4961291;28;91038;-27
2022/11/04 04:02:59;;;;;;;4.78;2.40;;;10.30;99.90;;;;;;4960791;28;88474;-29
2022/11/04 04:05:37;;;;;;;3.28;1.85;;;10.40;99.90;;;;;;4960868;28;87893;-30
2022/11/04 04:08:30;;;;;;;3.70;2.00;;;10.30;99.90;;;;;;4960679;28;90614;-30
2022/11/04 04:11:30;;;;;;;3.45;1.67;;;10.30;99.90;;;;;;4959929;28;89555;-29
2022/11/04 04:14:37;;;;;;;2.30;1.58;;;10.20;99.90;;;;;;4961301;28;90554;-30
2022/11/04 04:17:03;;;;;;;1.67;1.05;;;10.20;99.90;;;;;;4960252;28;87681;-31
2022/11/04 04:19:30;;;;;;;2.40;0.90;;;10.10;99.90;;;;;;4960170;28;90093;-29
2022/11/04 04:22:07;;;;;;;1.90;1.10;;;10.10;99.90;;;;;;4960314;28;88323;-31
2022/11/04 04:27:30;;;;;;;3.17;1.20;;;10.00;99.90;;;;;;4960928;28;88821;-31
2022/11/04 04:29:59;;;;;;;2.03;0.90;;;10.00;99.90;;;;;;4959656;28;89898;-30
2022/11/04 04:32:27;;;;;;;2.22;0.60;;;9.90;99.90;;;;;;4959469;28;89822;-28
2022/11/04 04:35:40;;;;;;;;;;;9.90;99.90;;;;;;4960200;28;89086;-29
2022/11/04 04:37:43;;;;;;;3.55;1.05;;;9.90;99.90;;;;;;4961635;28;88027;-29
2022/11/04 04:44:58;;;;;;;1.90;0.75;;;9.90;99.90;;;;;;4960122;28;90013;-31
2022/11/04 04:45:54;;;;;;;0.65;0.50;;;9.90;99.90;;;;;;4960263;28;87618;-27
2022/11/04 04:48:20;;;;;;;1.58;0.80;;;9.90;99.90;;;;;;4960337;28;88339;-30
2022/11/04 04:50:48;;;;;;;2.03;1.00;;;9.80;99.90;;;;;;4959028;28;90375;-30
2022/11/04 04:53:14;;;;;;;2.53;0.70;;;9.90;99.90;;;;;;4962675;28;89855;-30
2022/11/04 04:55:40;;;;;;;1.52;1.08;;;9.90;99.90;;;;;;4963153;28;89133;-30
2022/11/04 04:58:05;;;;;;;1.95;1.35;;;9.90;99.90;;;;;;4963413;28;89137;-32
2022/11/04 05:00:32;;;;;;;1.23;1.13;;;9.90;99.90;;;;;;4963551;28;89487;-29
2022/11/04 05:02:57;;;;;;;3.00;1.13;;;9.90;99.90;;;;;;4962538;28;89988;-30
2022/11/04 05:05:23;;;;;;;2.15;1.00;;;9.90;99.90;;;;;;4963403;28;87651;-29
2022/11/04 05:07:49;;;;;;;1.73;0.98;;;9.90;99.90;;;;;;4962534;28;88028;-28
2022/11/04 05:10:16;;;;;;;2.80;1.08;;;9.90;99.90;;;;;;4963374;28;90680;-28
2022/11/04 05:15:28;;;;;;;2.88;1.55;;;9.80;99.90;;;;;;4963714;28;89265;-29
2022/11/04 05:17:55;;;;;;;2.35;1.35;;;9.80;99.90;;;;;;4963056;28;88210;-30
2022/11/04 05:20:21;;;;;;;1.33;0.82;;;9.80;99.90;;;;;;4963243;28;90574;-31
2022/11/04 05:22:47;;;;;;;1.33;1.23;;;9.80;99.90;;;;;;4962275;28;89049;-29
2022/11/04 05:25:12;;;;;;;1.70;1.00;;;9.70;99.90;;;;;;4962882;28;88460;-32
2022/11/04 05:27:38;;;;;;;7.78;1.70;;;9.70;99.90;;;;;;4963155;28;89907;-32
2022/11/04 05:30:04;;;;;;;2.85;1.10;;;9.70;99.90;;;;;;4960813;28;90170;-32
2022/11/04 05:32:30;;;;;;;2.42;1.23;;;9.70;99.90;;;;;;4963271;28;89928;-32
2022/11/04 05:34:56;;;;;;;2.53;0.75;;;9.70;99.90;;;;;;4961857;28;88233;-28
2022/11/04 05:37:21;;;;;;;1.30;0.90;;;9.60;99.90;;;;;;4963374;28;90255;-27
2022/11/04 05:39:47;;;;;;;1.23;1.00;;;9.70;99.90;;;;;;4962088;28;90001;-29
2022/11/04 05:42:13;;;;;;;3.65;1.52;;;9.60;99.90;;;;;;4962814;28;89843;-31
2022/11/04 05:44:38;;;;;;;1.52;1.02;;;9.60;99.90;;;;;;4962527;28;87538;-29
2022/11/04 05:47:04;;;;;;;1.45;0.88;;;9.50;99.90;;;;;;4962076;28;89651;-30
2022/11/04 05:49:30;;;;;;;1.70;0.98;;;9.50;99.90;;;;;;4963204;28;89933;-31
2022/11/04 05:51:55;;;;;;;0.77;0.77;;;9.50;99.90;;;;;;4961582;28;89643;-29
2022/11/04 05:54:21;;;;;;;3.47;0.80;;;9.50;99.90;;;;;;4962247;28;90134;-33
2022/11/04 05:56:47;;;;;;;2.25;0.60;;;9.40;99.90;;;;;;4962678;28;89074;-28
2022/11/04 05:59:12;;;;;;;5.32;1.05;;;9.40;99.90;;;;;;4962050;28;89958;-32
2022/11/04 06:01:41;;;;;;;1.73;0.70;;;9.30;99.90;;;;;;4962698;28;90405;-30
2022/11/04 06:04:13;;;;;;;0.95;0.90;;;9.30;99.90;;;;;;4961699;28;87727;-28
2022/11/04 06:06:39;;;;;;;1.00;0.93;;;9.30;99.90;;;;;;4962404;28;87559;-30
2022/11/04 06:09:05;;;;;;;2.08;0.75;;;9.20;99.90;;;;;;4961823;28;89961;-31
2022/11/04 06:11:32;;;;;;;0.55;0.55;;;9.20;99.90;;;;;;4961960;28;90148;-29
2022/11/04 06:13:58;;;;;;;3.53;1.00;;;9.10;99.90;;;;;;4962516;28;87606;-30
2022/11/04 06:16:24;;;;;;;3.55;0.85;;;9.10;99.90;;;;;;4962169;28;89165;-29
2022/11/04 06:18:50;;;;;;;1.75;0.50;;;9.10;99.90;;;;;;4961872;28;90226;-29
2022/11/04 06:21:17;;;;;;;4.22;1.23;;;9.00;99.90;;;;;;4962545;28;89852;-29
2022/11/04 06:23:43;;;;;;;1.75;0.90;;;9.00;99.90;;;;;;4961745;28;87742;-29
2022/11/04 06:26:10;;;;;;;1.02;0.50;;;9.00;99.90;;;;;;4962316;28;87848;-29
2022/11/04 06:28:36;;;;;;;1.80;0.93;;;9.00;99.90;;;;;;4961016;28;92370;-31
2022/11/04 06:31:03;;;;;;;4.22;0.80;;;8.90;99.90;;;;;;4961293;28;89736;-32
2022/11/04 06:33:30;;;;;;;1.45;0.80;;;8.90;99.90;;;;;;4961639;28;87988;-31
2022/11/04 06:36:00;;;;;;;2.78;0.70;;;8.90;99.90;;;;;;4962270;28;88088;-30
2022/11/04 06:38:28;;;;;;;2.03;0.90;;;8.90;99.90;;;;;;4961965;28;90572;-32
2022/11/04 06:40:53;;;;;;;1.53;1.20;;;8.80;99.90;;;;;;4961811;28;90286;-28
2022/11/04 06:43:19;;;;;;;2.05;1.17;;;8.80;99.90;;;;;;4961249;28;88813;-26
2022/11/04 06:45:55;;;;;;;1.00;0.98;;;8.80;99.90;;;;;;4961586;28;88045;-30
2022/11/04 06:48:21;;;;;;;2.35;1.40;;;8.70;99.90;;;;;;4961148;28;90183;-28
2022/11/04 06:50:47;;;;;;;2.22;1.00;;;8.70;99.90;;;;;;4961465;28;89748;-28
2022/11/04 06:53:12;;;;;;;1.33;1.23;;;8.70;99.90;;;;;;4960961;28;89798;-28
2022/11/04 06:55:38;;;;;;;0.93;0.90;;;8.70;99.90;;;;;;4960388;28;88801;-31
2022/11/04 06:58:03;;;;;;;1.98;1.48;;;8.60;99.90;;;;;;4960078;28;89675;-31
2022/11/04 07:00:29;;;;;;;2.05;1.08;;;8.60;99.90;;;;;;4960706;28;88765;-31
2022/11/04 07:02:55;;;;;;;1.98;1.55;;;8.60;99.90;;;;;;4961227;28;87939;-31
2022/11/04 07:05:20;;;;;;;1.60;1.27;;;8.60;99.90;;;;;;4961436;28;87646;-30
2022/11/04 07:07:46;;;;;;;1.25;1.15;;;8.60;99.90;;;;;;4961366;28;90134;-30
2022/11/04 07:10:11;;;;;;;11.13;1.92;;;8.60;99.90;;;;;;4961160;28;90491;-29
2022/11/04 07:12:37;;;;;;;1.55;1.40;;;8.60;99.90;;;;;;4960836;28;87687;-27
2022/11/04 07:15:03;;;;;;;1.58;1.40;;;8.60;99.90;;;;;;4959610;28;88795;-32
2022/11/04 07:17:29;;;;;;;1.02;0.95;;;8.60;99.90;;;;;;4960918;28;90211;-28
2022/11/04 07:19:54;;;;;;;1.30;1.17;;;8.60;99.90;;;;;;4961104;28;89692;-32
2022/11/04 07:22:20;;;;;;;2.88;1.42;;;8.60;99.90;;;;;;4961338;28;89377;-29
2022/11/04 07:24:46;;;;;;;4.07;1.85;;;8.60;99.90;;;;;;4960725;28;88146;-29
2022/11/04 07:27:11;;;;;;;4.82;1.63;;;8.60;99.90;;;;;;4960829;28;90357;-28
2022/11/04 07:29:37;;;;;;;2.60;1.27;;;8.60;99.90;;;;;;4960719;28;89983;-27
2022/11/04 07:32:03;;;;;;;2.00;1.45;;;8.70;99.90;;;;;;4961364;28;89594;-32
2022/11/04 07:34:29;;;;;;;4.30;1.88;;;8.70;99.90;;;;;;4960245;28;87513;-28
2022/11/04 07:36:54;;;;;;;3.90;1.42;;;8.70;99.90;;;;;;4960752;28;89608;-29
2022/11/04 07:39:20;;;;;;;2.45;1.25;;;8.70;99.90;;;;;;4960777;28;89829;-29
2022/11/04 07:41:45;;;;;;;1.92;1.55;;;8.70;99.90;;;;;;4960664;28;88775;-30
2022/11/04 07:44:12;;;;;;;4.85;1.55;;;8.70;99.90;;;;;;4961053;28;88071;-30
2022/11/04 07:46:37;;;;;;;1.90;1.70;;;8.70;99.90;;;;;;4960777;28;90459;-28
2022/11/04 07:49:03;;;;;;;2.72;1.77;;;8.80;99.90;;;;;;4960159;28;88257;-31
2022/11/04 07:51:31;;;;;;;2.42;1.88;;;8.80;99.90;;;;;;4960829;28;88384;-28
2022/11/04 07:53:57;;;;;;;2.38;1.90;;;8.80;99.90;;;;;;4960562;28;89724;-28
2022/11/04 07:56:23;;;;;;;4.18;2.22;;;8.80;99.90;;;;;;4960977;28;90825;-31
2022/11/04 07:58:49;;;;;;;3.38;2.45;;;8.90;99.90;;;;;;4960453;28;89152;-28
2022/11/04 08:01:18;;;;;;;3.60;2.63;;;8.90;99.90;;;;;;4960261;28;88269;-30
2022/11/04 08:03:44;;;;;;;8.20;2.95;;;9.00;99.90;;;;;;4959817;28;88431;-29
2022/11/04 08:06:12;;;;;;;4.00;3.55;;;9.10;99.90;;;;;;4960387;28;90642;-29
2022/11/04 08:08:38;;;;;;;4.13;3.40;;;9.10;99.90;;;;;;4961035;28;91150;-28
2022/11/04 08:11:06;;;;;;;4.45;3.33;;;9.20;99.90;;;;;;4960426;28;87519;-28
2022/11/04 08:13:34;;;;;;;5.65;4.32;;;9.20;99.90;;;;;;4960559;28;89955;-30
2022/11/04 08:16:01;;;;;;;5.20;3.63;;;9.40;99.90;;;;;;4960363;28;88448;-32
2022/11/04 08:18:27;;;;;;;4.03;3.63;;;9.50;99.90;;;;;;4960800;28;89764;-29
2022/11/04 08:20:53;;;;;;;8.18;5.25;;;9.60;99.90;;;;;;4960133;28;87646;-28
2022/11/04 08:23:19;;;;;;;5.70;4.20;;;9.60;99.90;;;;;;4960944;28;89672;-32
2022/11/04 08:25:45;;;;;;;8.80;5.32;;;9.60;99.90;;;;;;4958702;28;88801;-28
2022/11/04 08:28:15;;;;;;;6.25;4.18;;;9.70;99.90;;;;;;4960474;28;89765;-30
2022/11/04 08:31:01;;;;;;;6.43;4.72;;;9.80;99.90;;;;;;4961538;28;89671;-30
2022/11/04 08:33:29;;;;;;;6.55;5.15;;;9.80;99.90;;;;;;4961860;28;88082;-30
2022/11/04 08:35:59;;;;;;;7.32;5.20;;;9.90;99.90;;;;;;4962013;28;88881;-30
2022/11/04 08:38:25;;;;;;;7.78;5.15;;;10.00;99.90;;;;;;4959436;28;90267;-31
2022/11/04 08:40:51;;;;;;;7.60;5.32;;;10.00;99.90;;;;;;4960157;28;89325;-33
2022/11/04 08:43:17;;;;;;;5.95;5.45;;;10.10;99.90;;;;;;4961936;28;88413;-32
2022/11/04 08:45:45;;;;;;;6.55;5.07;;;10.10;99.90;;;;;;4959992;28;89958;-31
2022/11/04 08:48:12;;;;;;;11.13;5.45;;;10.20;99.90;;;;;;4960350;28;89397;-32
2022/11/04 08:50:38;;;;;;;11.20;5.15;;;10.20;99.90;;;;;;4958944;28;88325;-28
2022/11/04 08:53:05;;;;;;;7.50;5.38;;;10.30;99.90;;;;;;4960577;28;87937;-31
2022/11/04 08:55:31;;;;;;;9.27;4.93;;;10.40;99.90;;;;;;4960625;28;91817;-30
2022/11/04 08:57:58;;;;;;;7.53;5.53;;;10.50;99.90;;;;;;4960165;28;89591;-32
2022/11/04 09:00:24;;;;;;;8.60;5.78;;;10.50;99.90;;;;;;4961472;28;88278;-30
2022/11/04 09:02:49;;;;;;;5.40;4.75;;;10.50;99.90;;;;;;4960355;28;89715;-28
2022/11/04 09:05:15;;;;;;;10.50;5.15;;;10.60;99.90;;;;;;4960647;28;89757;-29
2022/11/04 09:07:41;;;;;;;6.80;5.88;;;10.70;99.90;;;;;;4960772;28;89611;-29
2022/11/04 09:10:08;;;;;;;5.47;4.95;;;10.80;99.90;;;;;;4960481;28;89131;-29
2022/11/04 09:12:33;;;;;;;6.72;4.93;;;10.90;99.90;;;;;;4961406;28;88650;-29
2022/11/04 09:14:59;;;;;;;8.77;5.40;;;10.90;99.90;;;;;;4959050;28;88877;-29
2022/11/04 09:17:25;;;;;;;7.47;4.95;;;10.90;99.90;;;;;;4960999;28;89847;-32
2022/11/04 09:19:50;;;;;;;6.45;5.80;;;10.90;99.90;;;;;;4959898;28;89679;-31
2022/11/04 09:22:16;;;;;;;7.47;5.20;;;10.90;99.90;;;;;;4960392;28;89601;-33
2022/11/04 09:24:43;;;;;;;5.63;5.13;;;10.90;99.90;;;;;;4945577;28;90231;-30
2022/11/04 09:27:09;;;;;;;8.05;5.55;;;10.90;99.90;;;;;;4957700;28;89368;-31
2022/11/04 09:29:35;;;;;;;8.00;5.53;;;11.00;99.90;;;;;;4959599;28;89213;-31
2022/11/04 09:32:02;;;;;;;5.70;4.40;;;11.00;99.90;;;;;;4948438;28;90353;-30
2022/11/04 09:34:28;;;;;;;6.28;5.65;;;11.10;99.90;;;;;;4960424;28;89840;-28
2022/11/04 09:36:55;;;;;;;7.65;5.38;;;11.10;99.90;;;;;;4961342;28;89925;-31
2022/11/04 09:39:21;;;;;;;6.18;5.55;;;11.10;99.90;;;;;;4961157;28;89470;-28
2022/11/04 09:42:04;;;;;;;7.25;5.68;;;11.10;99.90;;;;;;4959851;28;89985;-28
2022/11/04 09:44:43;;;;;;;6.15;5.40;;;11.10;99.90;;;;;;4962973;28;90817;-31
2022/11/04 09:47:10;;;;;;;;;;;11.10;99.90;;;;;;4963804;28;90845;-28
2022/11/04 09:49:39;;;;;;;9.40;5.90;;;11.10;99.90;;;;;;4963294;28;88951;-30
2022/11/04 09:52:25;;;;;;;10.65;5.80;;;11.10;99.90;;;;;;4962475;28;88292;-28
2022/11/04 09:55:12;;;;;;;6.75;5.90;;;11.10;99.90;;;;;;4961805;28;90699;-30
2022/11/04 09:57:37;;;;;;;7.28;6.40;;;11.00;99.90;;;;;;4962782;28;89219;-30
2022/11/04 10:00:04;;;;;;;7.03;6.05;;;10.90;99.90;;;;;;4961882;28;88723;-27
2022/11/04 10:02:59;;;;;;;11.00;8.43;;;10.90;99.90;;;;;;4962280;28;88896;-31
2022/11/04 10:05:43;;;;;;;14.07;9.95;;;11.00;99.90;;;;;;4962276;28;90412;-27
2022/11/04 10:08:44;;;;;;;12.65;11.38;;;11.10;99.90;;;;;;4962065;28;89527;-28
2022/11/04 10:11:14;;;;;;;15.93;13.55;;;11.20;99.90;;;;;;4939201;28;90285;-31
2022/11/04 10:14:10;;;;;;;16.00;12.68;;;11.20;99.90;;;;;;4957271;28;89451;-32
2022/11/04 10:16:41;;;;;;;15.35;12.73;;;11.20;99.90;;;;;;4961650;28;90186;-29
2022/11/04 10:19:34;;;;;;;17.23;15.38;;;11.40;99.90;;;;;;4961768;28;90936;-30
2022/11/04 10:22:40;;;;;;;16.48;12.70;;;11.50;99.90;;;;;;4961096;28;87813;-29
2022/11/04 10:25:20;;;;;;;16.13;13.50;;;11.60;99.90;;;;;;4960965;28;89643;-28
2022/11/04 10:27:47;;;;;;;17.60;14.88;;;11.70;99.90;;;;;;4960231;28;90467;-31
2022/11/04 10:30:24;;;;;;;14.00;12.10;;;11.60;99.90;;;;;;4959057;28;90172;-29
2022/11/04 10:33:04;;;;;;;18.17;14.18;;;11.50;99.90;;;;;;4961341;28;89007;-27
2022/11/04 10:35:51;;;;;;;32.92;14.25;;;11.60;99.90;;;;;;4961009;28;89514;-30
2022/11/04 10:38:35;;;;;;;25.25;15.80;;;11.60;99.90;;;;;;4961158;28;90176;-28
2022/11/04 10:41:01;;;;;;;15.70;14.02;;;11.60;99.90;;;;;;4959665;28;88668;-30
2022/11/04 10:43:32;;;;;;;18.80;13.82;;;11.80;99.90;;;;;;4960921;28;88258;-29
2022/11/04 10:46:15;;;;;;;15.25;12.35;;;11.80;99.90;;;;;;4960277;28;88358;-29
2022/11/04 10:49:20;;;;;;;15.73;13.68;;;11.80;99.90;;;;;;4960448;28;90393;-30
2022/11/04 10:51:46;;;;;;;17.92;12.07;;;11.90;99.90;;;;;;4959794;28;89655;-31
2022/11/04 10:54:12;;;;;;;15.77;11.73;;;12.00;99.90;;;;;;4959664;28;88895;-29
2022/11/04 10:56:46;;;;;;;16.42;11.65;;;12.00;99.90;;;;;;4960630;28;87545;-29
2022/11/04 10:59:24;;;;;;;16.90;12.82;;;12.00;99.90;;;;;;4959916;28;88898;-32
2022/11/04 11:01:54;;;;;;;15.43;11.73;;;12.10;99.90;;;;;;4960267;28;89717;-32
2022/11/04 11:04:27;;;;;;;15.75;11.60;;;12.00;99.90;;;;;;4959611;28;87622;-28
2022/11/04 11:06:54;;;;;;;15.27;11.80;;;12.00;99.90;;;;;;4959744;28;88885;-29
2022/11/04 11:09:28;;;;;;;16.63;12.03;;;11.90;99.90;;;;;;4960022;28;90422;-30
2022/11/04 11:12:05;;;;;;;15.20;10.95;;;11.90;99.90;;;;;;4959967;28;90019;-28
2022/11/04 11:14:36;;;;;;;17.87;11.83;;;12.10;99.90;;;;;;4960456;28;87701;-31
2022/11/04 11:17:20;;;;;;;13.50;11.93;;;12.10;99.90;;;;;;4959998;28;89668;-29
2022/11/04 11:19:55;;;;;;;20.55;11.82;;;12.30;99.90;;;;;;4959527;28;90125;-32
2022/11/04 11:22:41;;;;;;;16.83;10.43;;;12.50;99.90;;;;;;4960568;28;89489;-28
2022/11/04 11:25:26;;;;;;;13.52;9.82;;;12.60;99.90;;;;;;4959595;28;90830;-31
2022/11/04 11:27:57;;;;;;;13.20;9.68;;;12.60;99.90;;;;;;4960396;28;89826;-32
2022/11/04 11:30:26;;;;;;;15.27;10.85;;;12.70;99.90;;;;;;4960207;28;90890;-30
2022/11/04 11:33:02;;;;;;;11.80;10.55;;;12.70;99.90;;;;;;4959388;28;89930;-32
2022/11/04 11:35:32;;;;;;;17.40;11.00;;;12.70;99.90;;;;;;4960780;28;89667;-28
2022/11/04 11:38:00;;;;;;;15.80;12.35;;;12.70;99.90;;;;;;4960638;28;88496;-26
2022/11/04 11:40:33;;;;;;;13.98;12.30;;;12.70;99.90;;;;;;4959371;28;88937;-27
2022/11/04 11:43:00;;;;;;;18.30;12.50;;;12.80;99.90;;;;;;4959610;28;88930;-30
2022/11/04 11:45:27;;;;;;;11.90;10.38;;;12.80;99.90;;;;;;4960036;28;87793;-30
2022/11/04 11:47:55;;;;;;;13.55;10.65;;;12.90;99.90;;;;;;4960310;28;89660;-27
2022/11/04 11:50:24;;;;;;;;;;;12.90;99.90;;;;;;4960469;28;89461;-29
2022/11/04 11:52:53;;;;;;;13.80;11.57;;;13.00;99.90;;;;;;4961431;28;89252;-31
2022/11/04 11:55:35;;;;;;;18.77;12.23;;;13.10;99.90;;;;;;4959619;28;89264;-28
2022/11/04 11:58:22;;;;;;;13.82;10.75;;;13.20;99.90;;;;;;4959334;28;88416;-30
2022/11/04 12:01:05;;;;;;;14.30;11.60;;;13.20;99.90;;;;;;4959830;28;90390;-29
2022/11/04 12:03:47;;;;;;;17.05;13.48;;;13.30;99.90;;;;;;4963253;28;90778;-31
2022/11/04 12:06:31;;;;;;;13.23;9.55;;;13.40;99.90;;;;;;4962123;28;88139;-29
2022/11/04 12:09:03;;;;;;;11.82;9.70;;;13.40;99.90;;;;;;4962676;28;88609;-30
2022/11/04 12:11:58;;;;;;;12.23;10.63;;;13.40;99.90;;;;;;4964173;28;90387;-28
2022/11/04 12:14:44;;;;;;;10.70;8.30;;;13.40;99.90;;;;;;4963090;28;88987;-29
2022/11/04 12:17:32;;;;;;;12.77;8.52;;;13.40;99.90;;;;;;4963714;28;88872;-31
2022/11/04 12:20:35;;;;;;;8.63;7.45;;;13.40;99.90;;;;;;4963745;28;88175;-31
2022/11/04 12:23:16;;;;;;;8.63;7.82;;;13.50;99.90;;;;;;4963727;28;89627;-29
2022/11/04 12:26:05;;;;;;;12.95;9.73;;;13.50;99.90;;;;;;4963463;28;90558;-29
2022/11/04 12:29:06;;;;;;;12.82;7.97;;;13.60;99.90;;;;;;4963602;28;89342;-30
2022/11/04 12:31:34;;;;;;;12.38;8.32;;;13.50;99.90;;;;;;4934146;28;88020;-30
2022/11/04 12:34:19;;;;;;;9.57;8.68;;;13.40;99.90;;;;;;4963294;28;90201;-32
2022/11/04 12:37:14;;;;;;;10.93;7.75;;;13.30;99.90;;;;;;4963864;28;89752;-29
2022/11/04 12:40:03;;;;;;;10.95;8.00;;;13.20;99.90;;;;;;4963141;28;89473;-32
2022/11/04 12:42:46;;;;;;;9.98;7.22;;;13.20;99.90;;;;;;4962871;28;89279;-29
2022/11/04 12:45:44;;;;;;;13.25;7.15;;;13.10;99.90;;;;;;4962919;28;90321;-34
2022/11/04 12:48:23;;;;;;;5.05;3.15;;;12.90;99.90;;;;;;4961802;28;90637;-28
2022/11/04 12:51:23;;;;;;;2.22;2.03;;;12.90;99.90;;;;;;4962800;28;89563;-31
2022/11/04 12:53:58;;;;;;;5.50;2.17;;;12.70;99.90;;;;;;4963269;28;88671;-30
2022/11/04 12:56:37;;;;;;;7.13;1.45;;;12.40;99.90;;;;;;4962914;28;90071;-30
2022/11/04 12:59:21;;;;;;;3.83;1.65;;;12.10;99.90;;;;;;4962640;28;89607;-30
2022/11/04 13:01:53;;;;;;;2.08;0.90;;;11.80;99.90;;;;;;4963546;28;88798;-31
2022/11/04 13:04:28;;;;;;;3.78;1.42;;;11.60;99.90;;;;;;4963429;28;89986;-28
2022/11/04 13:07:00;;;;;;;5.78;1.48;;;11.50;99.90;;;;;;4962626;28;90217;-30
2022/11/04 13:09:43;;;;;;;4.85;1.35;;;11.30;99.90;;;;;;4963733;28;89917;-30
2022/11/04 13:12:19;;;;;;;1.27;1.10;;;11.10;99.90;;;;;;4960841;28;87641;-32
2022/11/04 13:14:47;;;;;;;2.03;0.95;;;11.00;99.90;;;;;;4963161;28;89058;-33
2022/11/04 13:17:17;;;;;;;2.13;0.77;;;10.90;99.90;;;;;;4963104;28;89287;-30
2022/11/04 13:19:46;;;;;;;2.83;1.23;;;10.80;99.90;;;;;;4961405;28;88509;-30
2022/11/04 13:22:23;;;;;;;2.60;1.60;;;10.70;99.90;;;;;;4961720;28;89718;-30
2022/11/04 13:24:58;;;;;;;2.65;1.10;;;10.70;99.90;;;;;;4963107;28;89586;-29
2022/11/04 13:27:35;;;;;;;2.50;1.30;;;10.60;99.90;;;;;;4962288;28;90542;-29
2022/11/04 13:30:25;;;;;;;3.47;1.40;;;10.70;99.90;;;;;;4962567;28;89851;-31
2022/11/04 13:32:53;;;;;;;2.08;1.40;;;10.70;99.90;;;;;;4962563;28;88761;-30
2022/11/04 13:35:37;;;;;;;3.55;1.65;;;10.70;99.90;;;;;;4962732;28;87920;-32
2022/11/04 13:38:18;;;;;;;1.15;1.05;;;10.70;99.90;;;;;;4962250;28;89708;-27
2022/11/04 13:41:03;;;;;;;1.02;0.90;;;10.60;99.90;;;;;;4962046;28;90788;-29